createdAt,value
2023-09-30T00:02:00.221Z,101572.16
2023-09-30T00:04:28.957Z,101575.72
2023-09-30T00:06:56.372Z,101576.41
2023-09-30T00:09:23.501Z,101568.47
2023-09-30T00:11:50.600Z,101573.31
2023-09-30T00:14:18.496Z,101578.03
2023-09-30T00:16:45.871Z,101581.94
2023-09-30T00:19:13.408Z,101571.72
2023-09-30T00:21:40.877Z,101575.28
2023-09-30T00:24:08.128Z,101579.19
2023-09-30T00:26:35.152Z,101580.34
2023-09-30T00:29:05.930Z,101571.25
2023-09-30T00:31:33.762Z,101583.09
2023-09-30T00:34:00.808Z,101579.53
2023-09-30T00:36:28.074Z,101575.97
2023-09-30T00:38:55.288Z,101573.22
2023-09-30T00:41:22.479Z,101574.81
2023-09-30T00:43:49.742Z,101571.94
2023-09-30T00:46:26.749Z,101574.25
2023-09-30T00:48:55.134Z,101571.03
2023-09-30T00:51:23.786Z,101578.06
2023-09-30T00:53:56.206Z,101578.88
2023-09-30T00:56:27.301Z,101581.19
2023-09-30T00:58:54.934Z,101570.94
2023-09-30T01:01:22.751Z,101570.81
2023-09-30T01:03:50.645Z,101569.19
2023-09-30T01:06:17.880Z,101569.19
2023-09-30T01:08:45.411Z,101579.00
2023-09-30T01:11:13.875Z,101579.34
2023-09-30T01:13:41.281Z,101571.41
2023-09-30T01:16:13.201Z,101572.22
2023-09-30T01:18:44.440Z,101568.66
2023-09-30T01:21:12.490Z,101560.69
2023-09-30T01:23:42.383Z,101567.38
2023-09-30T01:26:12.419Z,101570.47
2023-09-30T01:28:40.326Z,101577.97
2023-09-30T01:31:07.652Z,101570.69
2023-09-30T01:33:36.592Z,101570.69
2023-09-30T01:36:04.502Z,101574.28
2023-09-30T01:38:31.621Z,101578.19
2023-09-30T01:41:01.140Z,101574.97
2023-09-30T01:43:29.597Z,101574.84
2023-09-30T01:45:57.250Z,101579.59
2023-09-30T01:48:24.517Z,101563.78
2023-09-30T01:50:52.859Z,101573.69
2023-09-30T01:53:19.963Z,101570.13
2023-09-30T01:55:47.079Z,101572.41
2023-09-30T01:58:15.042Z,101571.63
2023-09-30T02:00:42.191Z,101575.91
2023-09-30T02:03:09.444Z,101574.63
2023-09-30T02:05:38.103Z,101571.41
2023-09-30T02:08:07.263Z,101565.88
2023-09-30T02:10:34.839Z,101573.38
2023-09-30T02:13:02.798Z,101577.63
2023-09-30T02:15:29.963Z,101579.13
2023-09-30T02:17:57.312Z,101579.47
2023-09-30T02:20:27.154Z,101566.81
2023-09-30T02:22:55.674Z,101579.81
2023-09-30T02:25:22.877Z,101572.69
2023-09-30T02:27:51.936Z,101561.63
2023-09-30T02:30:20.630Z,101556.91
2023-09-30T02:32:48.464Z,101551.72
2023-09-30T02:35:16.814Z,101562.53
2023-09-30T02:37:44.367Z,101561.72
2023-09-30T02:40:12.204Z,101561.63
2023-09-30T02:42:41.036Z,101555.97
2023-09-30T02:45:09.660Z,101564.28
2023-09-30T02:47:38.257Z,101563.47
2023-09-30T02:50:12.677Z,101559.09
2023-09-30T02:52:43.321Z,101553.09
2023-09-30T02:55:11.857Z,101557.03
2023-09-30T02:57:39.869Z,101550.22
2023-09-30T03:00:24.673Z,101551.72
2023-09-30T03:02:53.711Z,101561.97
2023-09-30T03:05:21.495Z,101558.41
2023-09-30T03:07:49.509Z,101565.09
2023-09-30T03:10:21.761Z,101561.97
2023-09-30T03:12:49.856Z,101563.94
2023-09-30T03:15:18.191Z,101557.13
2023-09-30T03:17:45.537Z,101556.34
2023-09-30T03:20:13.471Z,101558.28
2023-09-30T03:22:44.558Z,101557.50
2023-09-30T03:25:12.882Z,101553.09
2023-09-30T03:27:40.266Z,101555.06
2023-09-30T03:30:08.380Z,101547.13
2023-09-30T03:32:39.526Z,101554.59
2023-09-30T03:35:08.689Z,101559.00
2023-09-30T03:37:35.942Z,101557.34
2023-09-30T03:40:13.074Z,101548.25
2023-09-30T03:42:44.079Z,101560.94
2023-09-30T03:45:12.552Z,101562.44
2023-09-30T03:47:43.299Z,101555.63
2023-09-30T03:50:15.335Z,101559.19
2023-09-30T03:52:48.076Z,101562.31
2023-09-30T03:55:20.657Z,101555.16
2023-09-30T03:57:50.305Z,101551.97
2023-09-30T04:00:21.279Z,101557.94
2023-09-30T04:02:52.614Z,101556.78
2023-09-30T04:05:20.641Z,101562.44
2023-09-30T04:07:48.444Z,101556.44
2023-09-30T04:10:16.006Z,101559.88
2023-09-30T04:12:43.220Z,101567.03
2023-09-30T04:15:13.408Z,101566.56
2023-09-30T04:17:41.097Z,101570.03
2023-09-30T04:20:17.476Z,101567.16
2023-09-30T04:22:50.414Z,101575.91
2023-09-30T04:25:19.294Z,101573.81
2023-09-30T04:27:47.570Z,101573.03
2023-09-30T04:30:16.629Z,101575.31
2023-09-30T04:32:44.904Z,101577.28
2023-09-30T04:35:12.463Z,101565.75
2023-09-30T04:37:39.880Z,101571.75
2023-09-30T04:40:28.007Z,101570.59
2023-09-30T04:42:59.909Z,101563.91
2023-09-30T04:45:28.341Z,101565.06
2023-09-30T04:47:59.229Z,101565.06
2023-09-30T04:50:26.335Z,101562.78
2023-09-30T04:52:53.478Z,101569.44
2023-09-30T04:55:21.317Z,101566.22
2023-09-30T04:57:49.555Z,101570.94
2023-09-30T05:00:20.397Z,101568.84
2023-09-30T05:02:48.043Z,101576.81
2023-09-30T05:05:16.462Z,101578.78
2023-09-30T05:07:44.140Z,101579.00
2023-09-30T05:10:14.890Z,101571.53
2023-09-30T05:12:47.404Z,101574.84
2023-09-30T05:15:17.302Z,101571.63
2023-09-30T05:17:45.437Z,101577.94
2023-09-30T05:20:13.965Z,101585.22
2023-09-30T05:22:43.923Z,101582.63
2023-09-30T05:25:11.624Z,101587.59
2023-09-30T05:27:38.838Z,101583.69
2023-09-30T05:30:07.694Z,101593.84
2023-09-30T05:32:36.012Z,101598.72
2023-09-30T05:35:06.620Z,101601.16
2023-09-30T05:37:34.103Z,101606.59
2023-09-30T05:40:02.095Z,101605.00
2023-09-30T05:42:29.152Z,101603.91
2023-09-30T05:44:56.227Z,101609.16
2023-09-30T05:47:23.222Z,101610.19
2023-09-30T05:49:50.367Z,101607.16
2023-09-30T05:52:17.588Z,101616.56
2023-09-30T05:54:44.749Z,101608.56
2023-09-30T05:57:11.935Z,101620.22
2023-09-30T05:59:39.017Z,101614.84
2023-09-30T06:02:06.443Z,101622.13
2023-09-30T06:04:34.823Z,101616.44
2023-09-30T06:07:01.925Z,101619.31
2023-09-30T06:09:31.869Z,101617.03
2023-09-30T06:11:59.169Z,101626.38
2023-09-30T06:14:29.242Z,101626.59
2023-09-30T06:16:57.004Z,101623.91
2023-09-30T06:19:24.847Z,101624.31
2023-09-30T06:21:51.864Z,101621.69
2023-09-30T06:24:21.297Z,101625.97
2023-09-30T06:26:50.050Z,101628.03
2023-09-30T06:29:17.434Z,101624.81
2023-09-30T06:31:44.794Z,101624.75
2023-09-30T06:34:12.544Z,101629.84
2023-09-30T06:36:39.590Z,101626.88
2023-09-30T06:39:07.053Z,101644.91
2023-09-30T06:41:34.680Z,101645.38
2023-09-30T06:44:03.179Z,101645.53
2023-09-30T06:46:30.714Z,101648.78
2023-09-30T06:48:57.996Z,101650.03
2023-09-30T06:51:25.421Z,101653.59
2023-09-30T06:53:53.114Z,101666.34
2023-09-30T06:56:20.243Z,101659.56
2023-09-30T06:58:47.269Z,101673.13
2023-09-30T07:01:18.215Z,101670.75
2023-09-30T07:03:45.475Z,101669.09
2023-09-30T07:06:12.599Z,101672.34
2023-09-30T07:08:39.537Z,101672.75
2023-09-30T07:11:06.889Z,101677.81
2023-09-30T07:13:34.008Z,101682.84
2023-09-30T07:16:01.419Z,101686.19
2023-09-30T07:18:28.967Z,101689.00
2023-09-30T07:20:56.166Z,101683.63
2023-09-30T07:23:23.527Z,101690.53
2023-09-30T07:25:50.591Z,101697.13
2023-09-30T07:28:17.748Z,101705.19
2023-09-30T07:30:46.002Z,101703.09
2023-09-30T07:33:13.157Z,101705.09
2023-09-30T07:35:40.517Z,101708.31
2023-09-30T07:38:07.793Z,101706.56
2023-09-30T07:40:34.921Z,101703.78
2023-09-30T07:43:02.136Z,101717.75
2023-09-30T07:45:29.673Z,101709.00
2023-09-30T07:47:57.199Z,101714.72
2023-09-30T07:50:24.199Z,101712.66
2023-09-30T07:52:51.524Z,101717.19
2023-09-30T07:55:18.547Z,101715.81
2023-09-30T07:57:45.750Z,101717.59
2023-09-30T08:00:17.061Z,101714.69
2023-09-30T08:02:45.709Z,101716.63
2023-09-30T08:05:13.363Z,101717.78
2023-09-30T08:07:40.717Z,101721.31
2023-09-30T08:10:13.530Z,101718.50
2023-09-30T08:12:42.504Z,101724.75
2023-09-30T08:15:13.502Z,101726.59
2023-09-30T08:17:41.100Z,101722.78
2023-09-30T08:20:11.002Z,101725.72
2023-09-30T08:22:38.523Z,101720.97
2023-09-30T08:25:07.707Z,101717.78
2023-09-30T08:27:35.795Z,101723.97
2023-09-30T08:30:06.716Z,101729.06
2023-09-30T08:32:37.945Z,101726.28
2023-09-30T08:35:05.833Z,101733.38
2023-09-30T08:37:32.995Z,101728.69
2023-09-30T08:40:00.427Z,101733.66
2023-09-30T08:42:34.377Z,101732.47
2023-09-30T08:45:02.024Z,101726.13
2023-09-30T08:47:30.311Z,101739.03
2023-09-30T08:50:07.422Z,101748.88
2023-09-30T08:52:39.269Z,101745.63
2023-09-30T08:55:11.367Z,101746.06
2023-09-30T08:57:43.160Z,101743.28
2023-09-30T09:00:14.916Z,101746.22
2023-09-30T09:02:43.696Z,101744.78
2023-09-30T09:05:12.098Z,101744.34
2023-09-30T09:07:40.066Z,101749.25
2023-09-30T09:10:14.224Z,101742.91
2023-09-30T09:12:42.629Z,101730.59
2023-09-30T09:15:23.289Z,101737.81
2023-09-30T09:17:52.220Z,101727.03
2023-09-30T09:20:24.078Z,101728.59
2023-09-30T09:22:57.666Z,101728.16
2023-09-30T09:25:25.604Z,101739.31
2023-09-30T09:27:56.376Z,101731.56
2023-09-30T09:30:28.598Z,101732.78
2023-09-30T09:33:09.155Z,101734.06
2023-09-30T09:35:36.860Z,101733.13
2023-09-30T09:38:08.803Z,101738.59
2023-09-30T09:40:37.717Z,101731.75
2023-09-30T09:43:06.809Z,101735.28
2023-09-30T09:45:36.777Z,101722.78
2023-09-30T09:48:06.151Z,101723.16
2023-09-30T09:50:34.457Z,101728.19
2023-09-30T09:53:02.123Z,101722.47
2023-09-30T09:55:29.450Z,101722.38
2023-09-30T09:57:59.285Z,101730.56
2023-09-30T10:00:27.635Z,101734.66
2023-09-30T10:02:55.107Z,101741.22
2023-09-30T10:05:22.999Z,101731.47
2023-09-30T10:07:57.982Z,101738.78
2023-09-30T10:10:26.432Z,101730.00
2023-09-30T10:12:53.688Z,101732.56
2023-09-30T10:15:26.983Z,101740.28
2023-09-30T10:18:05.361Z,101738.97
2023-09-30T10:20:33.875Z,101732.59
2023-09-30T10:23:19.154Z,101737.09
2023-09-30T10:25:49.059Z,101730.06
2023-09-30T10:28:40.293Z,101728.91
2023-09-30T10:31:14.152Z,101731.97
2023-09-30T10:34:00.464Z,101725.75
2023-09-30T10:36:42.332Z,101725.63
2023-09-30T10:39:16.503Z,101723.91
2023-09-30T10:41:46.688Z,101724.84
2023-09-30T10:44:31.055Z,101712.88
2023-09-30T10:47:22.595Z,101712.88
2023-09-30T10:49:49.755Z,101705.53
2023-09-30T10:52:27.478Z,101688.91
2023-09-30T10:54:55.352Z,101700.59
2023-09-30T10:57:32.092Z,101702.09
2023-09-30T11:00:17.555Z,101698.56
2023-09-30T11:02:52.591Z,101692.84
2023-09-30T11:05:32.262Z,101687.06
2023-09-30T11:08:09.385Z,101683.66
2023-09-30T11:10:36.978Z,101688.50
2023-09-30T11:13:04.971Z,101702.09
2023-09-30T11:15:32.433Z,101697.19
2023-09-30T11:18:17.767Z,101686.19
2023-09-30T11:20:45.913Z,101689.63
2023-09-30T11:23:13.658Z,101692.81
2023-09-30T11:25:43.498Z,101686.88
2023-09-30T11:28:17.830Z,101688.69
2023-09-30T11:30:58.600Z,101689.19
2023-09-30T11:33:27.050Z,101671.47
2023-09-30T11:36:12.368Z,101670.22
2023-09-30T11:38:46.284Z,101672.75
2023-09-30T11:41:13.592Z,101662.00
2023-09-30T11:44:01.722Z,101655.38
2023-09-30T11:46:29.174Z,101664.13
2023-09-30T11:49:02.343Z,101661.00
2023-09-30T11:51:30.901Z,101669.53
2023-09-30T11:54:01.551Z,101656.94
2023-09-30T11:56:31.402Z,101674.06
2023-09-30T11:58:58.707Z,101656.00
2023-09-30T12:01:26.723Z,101646.13
2023-09-30T12:03:58.439Z,101649.69
2023-09-30T12:06:26.509Z,101642.47
2023-09-30T12:08:53.646Z,101640.50
2023-09-30T12:11:21.013Z,101640.91
2023-09-30T12:13:50.187Z,101636.22
2023-09-30T12:16:18.032Z,101642.78
2023-09-30T12:18:46.398Z,101638.41
2023-09-30T12:21:21.551Z,101636.50
2023-09-30T12:23:49.879Z,101644.63
2023-09-30T12:26:20.428Z,101635.97
2023-09-30T12:28:48.447Z,101633.66
2023-09-30T12:31:16.961Z,101628.03
2023-09-30T12:33:44.588Z,101641.16
2023-09-30T12:36:14.283Z,101638.47
2023-09-30T12:38:41.565Z,101630.19
2023-09-30T12:41:09.405Z,101622.78
2023-09-30T12:43:36.568Z,101622.94
2023-09-30T12:46:03.845Z,101624.56
2023-09-30T12:48:31.127Z,101623.03
2023-09-30T12:50:58.489Z,101621.75
2023-09-30T12:53:25.805Z,101620.59
2023-09-30T12:55:52.866Z,101617.22
2023-09-30T12:58:19.930Z,101620.16
2023-09-30T13:00:46.985Z,101626.88
2023-09-30T13:03:16.830Z,101617.97
2023-09-30T13:05:44.435Z,101619.16
2023-09-30T13:08:12.485Z,101625.34
2023-09-30T13:10:39.923Z,101627.88
2023-09-30T13:13:07.029Z,101621.03
2023-09-30T13:15:34.529Z,101617.06
2023-09-30T13:18:03.832Z,101620.50
2023-09-30T13:20:30.828Z,101621.66
2023-09-30T13:22:58.687Z,101621.97
2023-09-30T13:25:25.848Z,101613.63
2023-09-30T13:27:53.219Z,101624.22
2023-09-30T13:30:20.297Z,101624.56
2023-09-30T13:32:47.614Z,101617.00
2023-09-30T13:35:14.735Z,101628.47
2023-09-30T13:37:44.815Z,101626.38
2023-09-30T13:40:14.506Z,101625.31
2023-09-30T13:42:42.041Z,101625.31
2023-09-30T13:45:10.843Z,101612.00
2023-09-30T13:47:38.004Z,101611.13
2023-09-30T13:50:07.341Z,101610.81
2023-09-30T13:52:36.418Z,101612.06
2023-09-30T13:55:06.358Z,101614.19
2023-09-30T13:57:33.758Z,101622.88
2023-09-30T14:00:01.225Z,101623.88
2023-09-30T14:02:28.594Z,101619.41
2023-09-30T14:04:56.640Z,101622.09
2023-09-30T14:07:24.502Z,101621.66
2023-09-30T14:09:53.908Z,101628.31
2023-09-30T14:12:21.155Z,101622.56
2023-09-30T14:14:48.240Z,101626.53
2023-09-30T14:17:16.530Z,101614.53
2023-09-30T14:19:43.718Z,101612.56
2023-09-30T14:22:11.036Z,101610.59
2023-09-30T14:24:38.312Z,101614.13
2023-09-30T14:27:06.179Z,101619.19
2023-09-30T14:29:33.528Z,101615.63
2023-09-30T14:32:00.966Z,101615.25
2023-09-30T14:34:28.031Z,101615.25
2023-09-30T14:36:55.151Z,101618.56
2023-09-30T14:39:22.489Z,101615.41
2023-09-30T14:41:49.475Z,101617.47
2023-09-30T14:44:16.621Z,101606.34
2023-09-30T14:46:44.528Z,101618.31
2023-09-30T14:49:11.852Z,101609.19
2023-09-30T14:51:39.354Z,101618.78
2023-09-30T14:54:06.770Z,101613.50
2023-09-30T14:56:34.194Z,101616.09
2023-09-30T14:59:01.520Z,101620.50
2023-09-30T15:01:28.823Z,101615.72
2023-09-30T15:03:56.171Z,101618.44
2023-09-30T15:06:25.765Z,101615.09
2023-09-30T15:08:52.982Z,101624.19
2023-09-30T15:11:20.313Z,101626.03
2023-09-30T15:13:47.612Z,101622.88
2023-09-30T15:16:18.146Z,101622.69
2023-09-30T15:18:47.017Z,101620.03
2023-09-30T15:21:15.504Z,101628.88
2023-09-30T15:23:43.626Z,101629.72
2023-09-30T15:26:11.723Z,101635.13
2023-09-30T15:28:39.274Z,101625.66
2023-09-30T15:31:07.954Z,101624.81
2023-09-30T15:33:35.608Z,101634.75
2023-09-30T15:36:12.635Z,101633.06
2023-09-30T15:38:41.211Z,101630.75
2023-09-30T15:41:08.420Z,101623.31
2023-09-30T15:43:37.110Z,101634.03
2023-09-30T15:46:04.823Z,101636.34
2023-09-30T15:48:34.705Z,101627.06
2023-09-30T15:51:02.147Z,101631.94
2023-09-30T15:53:29.965Z,101626.72
2023-09-30T15:55:57.306Z,101635.00
2023-09-30T15:58:25.676Z,101630.97
2023-09-30T16:00:53.044Z,101624.91
2023-09-30T16:03:24.163Z,101632.09
2023-09-30T16:05:53.167Z,101637.56
2023-09-30T16:08:20.695Z,101637.56
2023-09-30T16:10:48.201Z,101638.66
2023-09-30T16:13:15.735Z,101647.28
2023-09-30T16:15:44.957Z,101648.91
2023-09-30T16:18:14.886Z,101644.53
2023-09-30T16:20:42.664Z,101631.38
2023-09-30T16:23:11.123Z,101629.72
2023-09-30T16:25:38.271Z,101636.03
2023-09-30T16:28:06.789Z,101624.91
2023-09-30T16:30:34.079Z,101636.47
2023-09-30T16:33:01.480Z,101638.44
2023-09-30T16:35:28.606Z,101637.84
2023-09-30T16:37:55.739Z,101642.59
2023-09-30T16:40:23.422Z,101645.75
2023-09-30T16:42:50.673Z,101642.53
2023-09-30T16:45:18.913Z,101641.28
2023-09-30T16:47:48.723Z,101648.28
2023-09-30T16:50:16.025Z,101645.44
2023-09-30T16:52:46.176Z,101646.91
2023-09-30T16:55:14.287Z,101653.63
2023-09-30T16:57:42.170Z,101658.78
2023-09-30T17:00:12.358Z,101666.31
2023-09-30T17:02:39.850Z,101665.81
2023-09-30T17:05:08.116Z,101664.66
2023-09-30T17:07:36.113Z,101664.56
2023-09-30T17:10:05.862Z,101673.44
2023-09-30T17:12:33.226Z,101678.88
2023-09-30T17:15:02.650Z,101685.31
2023-09-30T17:17:34.149Z,101682.09
2023-09-30T17:20:01.928Z,101682.81
2023-09-30T17:22:29.090Z,101680.41
2023-09-30T17:24:57.599Z,101685.59
2023-09-30T17:27:24.832Z,101687.38
2023-09-30T17:29:52.097Z,101684.53
2023-09-30T17:32:21.185Z,101684.88
2023-09-30T17:34:48.365Z,101686.03
2023-09-30T17:37:21.897Z,101680.84
2023-09-30T17:39:48.867Z,101687.94
2023-09-30T17:42:17.088Z,101686.31
2023-09-30T17:44:44.183Z,101679.63
2023-09-30T17:47:11.249Z,101692.31
2023-09-30T17:49:39.378Z,101681.22
2023-09-30T17:52:06.601Z,101691.13
2023-09-30T17:54:34.640Z,101689.81
2023-09-30T17:57:01.735Z,101691.34
2023-09-30T17:59:28.773Z,101688.56
2023-09-30T18:01:56.065Z,101690.91
2023-09-30T18:04:23.225Z,101690.09
2023-09-30T18:06:51.650Z,101695.66
2023-09-30T18:09:18.745Z,101695.97
2023-09-30T18:11:45.970Z,101698.75
2023-09-30T18:14:17.503Z,101703.50
2023-09-30T18:16:45.301Z,101700.72
2023-09-30T18:19:12.798Z,101700.31
2023-09-30T18:21:40.214Z,101699.59
2023-09-30T18:24:07.489Z,101699.31
2023-09-30T18:26:34.606Z,101709.22
2023-09-30T18:29:02.543Z,101710.47
2023-09-30T18:31:29.723Z,101708.97
2023-09-30T18:33:57.090Z,101714.97
2023-09-30T18:36:24.182Z,101714.69
2023-09-30T18:38:51.386Z,101721.31
2023-09-30T18:41:19.841Z,101720.06
2023-09-30T18:43:48.476Z,101722.41
2023-09-30T18:46:16.112Z,101723.22
2023-09-30T18:48:43.667Z,101724.34
2023-09-30T18:51:13.139Z,101721.94
2023-09-30T18:53:41.321Z,101734.56
2023-09-30T18:56:08.523Z,101727.41
2023-09-30T18:58:35.709Z,101740.81
2023-09-30T19:01:02.757Z,101738.41
2023-09-30T19:03:30.083Z,101737.53
2023-09-30T19:05:58.051Z,101736.97
2023-09-30T19:08:25.631Z,101735.25
2023-09-30T19:10:52.653Z,101739.22
2023-09-30T19:13:19.776Z,101739.22
2023-09-30T19:15:47.501Z,101738.88
2023-09-30T19:18:14.869Z,101736.44
2023-09-30T19:20:47.415Z,101732.88
2023-09-30T19:23:15.281Z,101741.97
2023-09-30T19:25:42.419Z,101736.81
2023-09-30T19:28:09.727Z,101745.47
2023-09-30T19:30:36.843Z,101750.13
2023-09-30T19:33:04.371Z,101744.56
2023-09-30T19:35:31.425Z,101752.50
2023-09-30T19:37:58.521Z,101743.06
2023-09-30T19:40:25.592Z,101745.03
2023-09-30T19:42:52.793Z,101747.81
2023-09-30T19:45:20.690Z,101746.16
2023-09-30T19:47:47.776Z,101741.78
2023-09-30T19:50:14.916Z,101741.00
2023-09-30T19:52:42.094Z,101748.94
2023-09-30T19:55:09.215Z,101742.13
2023-09-30T19:57:36.333Z,101752.09
2023-09-30T20:00:05.573Z,101753.22
2023-09-30T20:02:32.735Z,101747.69
2023-09-30T20:05:00.320Z,101759.50
2023-09-30T20:07:27.438Z,101762.16
2023-09-30T20:09:54.735Z,101757.34
2023-09-30T20:12:23.495Z,101757.78
2023-09-30T20:14:50.581Z,101752.13
2023-09-30T20:17:17.792Z,101752.13
2023-09-30T20:19:44.924Z,101754.44
2023-09-30T20:22:12.177Z,101751.56
2023-09-30T20:24:39.388Z,101754.22
2023-09-30T20:27:06.610Z,101754.94
2023-09-30T20:29:33.797Z,101751.28
2023-09-30T20:32:00.906Z,101762.81
2023-09-30T20:34:28.722Z,101763.97
2023-09-30T20:36:56.011Z,101760.84
2023-09-30T20:39:23.335Z,101764.78
2023-09-30T20:41:53.259Z,101756.47
2023-09-30T20:44:20.245Z,101762.34
2023-09-30T20:46:49.029Z,101752.44
2023-09-30T20:49:19.377Z,101764.66
2023-09-30T20:51:47.143Z,101761.47
2023-09-30T20:54:14.835Z,101761.00
2023-09-30T20:56:42.831Z,101760.56
2023-09-30T20:59:12.140Z,101760.56
2023-09-30T21:01:39.765Z,101756.16
2023-09-30T21:04:07.904Z,101756.97
2023-09-30T21:06:35.807Z,101752.94
2023-09-30T21:09:02.870Z,101764.03
2023-09-30T21:11:30.271Z,101756.84
2023-09-30T21:13:57.249Z,101752.03
2023-09-30T21:16:24.579Z,101754.00
2023-09-30T21:18:51.797Z,101757.56
2023-09-30T21:21:20.161Z,101761.03
2023-09-30T21:23:47.186Z,101762.91
2023-09-30T21:26:15.257Z,101753.22
2023-09-30T21:28:47.276Z,101750.34
2023-09-30T21:31:22.336Z,101746.34
2023-09-30T21:33:50.940Z,101755.69
2023-09-30T21:36:19.804Z,101753.72
2023-09-30T21:38:48.563Z,101751.31
2023-09-30T21:41:23.058Z,101752.81
2023-09-30T21:43:50.307Z,101752.72
2023-09-30T21:46:17.494Z,101748.34
2023-09-30T21:48:44.730Z,101743.13
2023-09-30T21:51:12.002Z,101747.06
2023-09-30T21:53:39.288Z,101748.25
2023-09-30T21:56:06.420Z,101758.16
2023-09-30T21:58:33.633Z,101760.44
2023-09-30T22:01:01.006Z,101748.56
2023-09-30T22:03:29.692Z,101754.13
2023-09-30T22:05:57.354Z,101753.31
2023-09-30T22:08:26.279Z,101749.28
2023-09-30T22:10:55.374Z,101746.50
2023-09-30T22:13:24.418Z,101739.38
2023-09-30T22:15:52.338Z,101734.53
2023-09-30T22:18:20.459Z,101735.66
2023-09-30T22:20:48.024Z,101732.06
2023-09-30T22:23:15.148Z,101730.47
2023-09-30T22:25:42.348Z,101731.63
2023-09-30T22:28:09.868Z,101740.94
2023-09-30T22:30:38.110Z,101742.47
2023-09-30T22:33:07.210Z,101730.47
2023-09-30T22:35:34.841Z,101739.13
2023-09-30T22:38:02.404Z,101737.88
2023-09-30T22:40:29.623Z,101737.44
2023-09-30T22:42:57.508Z,101738.13
2023-09-30T22:45:24.666Z,101737.28
2023-09-30T22:47:54.191Z,101731.66
2023-09-30T22:50:23.575Z,101737.53
2023-09-30T22:52:51.580Z,101738.34
2023-09-30T22:55:23.579Z,101736.28
2023-09-30T22:57:51.815Z,101745.38
2023-09-30T23:00:21.167Z,101748.94
2023-09-30T23:02:49.368Z,101743.41
2023-09-30T23:05:19.124Z,101745.72
2023-09-30T23:07:47.114Z,101748.03
2023-09-30T23:10:16.091Z,101741.69
2023-09-30T23:12:43.683Z,101745.25
2023-09-30T23:15:12.372Z,101742.06
2023-09-30T23:17:44.535Z,101748.72
2023-09-30T23:20:16.522Z,101738.94
2023-09-30T23:22:54.433Z,101745.25
2023-09-30T23:25:36.036Z,101750.34
2023-09-30T23:28:04.245Z,101754.72
2023-09-30T23:30:31.431Z,101745.50
2023-09-30T23:32:59.681Z,101751.38
2023-09-30T23:35:31.150Z,101743.44
2023-09-30T23:38:03.228Z,101742.28
2023-09-30T23:40:34.249Z,101737.53
2023-09-30T23:43:02.269Z,101742.28
2023-09-30T23:45:32.754Z,101738.69
2023-09-30T23:48:00.178Z,101737.09
2023-09-30T23:50:30.987Z,101743.78
2023-09-30T23:53:00.956Z,101746.56
2023-09-30T23:55:29.375Z,101738.59
2023-09-30T23:57:57.000Z,101736.19
